Barabinsk, Russia
Current Conditions -  °F | °C
As of 10:30 AM on Sunday 26 Oct 2014 (Local Time) from UNNT Reporting Station
Clear Clear  
Wind Chill: 13°   Ceiling: Unl
Heat Index: 23°   Visibility: 6mi
Dew Point: 16°   Wind: 9mph
Humidity: 74%   Direction: 230°SW
Pressure: 30"   Gusts: NA
Location:  55.35°N, 78.35°E
Report Text: UNNT 260330Z 23004MPS CAVOK M05/M09 Q1016 25090070 16090070NOSIG RMK QFE752/1003
Loading
Personal Weather Stations






























Interactive Weather Map
Tropical Storm Tracking
New forecast layout! Learn more

10-Day Weather Forecast

Advertisements
Track Severe Weather on mobile